Grove, OK

9:29 PM CDT on May 05, 2015 (GMT -0500)
Blue Heron Cove, Patricia Island, Grove,OK | | Change Station
CLOSE
Current Station
Personal Weather Station
Location: Grove, OK
Elevation: 774 ft
Nearby Weather Stations

Elev 774 ft 36.59 °N, 94.84 °W | Updated 55 seconds ago

Mostly Cloudy
Mostly Cloudy
74.5 °F
Feels Like 77 °F
N
3.8
Wind Variable Wind from East
Gusts 3.8 mph

Today
High -- | Low -- °F
--% Chance of Precip.
Yesterday
High -- | Low -- °F
Precip. -- in
6:21 AM 8:10 PM
Waning Gibbous, 96% visible
Pressure 30.03 in
Visibility 10.0 miles
Clouds Mostly Cloudy 10000 ft
Heat Index 77 °F
Dew Point 58 °F
Humidity 56%
Rainfall 0.00 in
Snow Depth Not available.
UV 0 out of 12
Pollen 7.40 out of 12
Air Quality Not available.
Flu Activity Local Activity
METAR KGMJ 060215Z AUTO 12004KT 10SM BKN100 23/13 A3003 RMK AO2

More Conditions Fewer Conditions

Pressure 30.03 in
Visibility 10.0 miles
Clouds Mostly Cloudy 10000 ft
Heat Index 77 °F
Dew Point 58 °F
Humidity 56%
Rainfall 0.00 in
Snow Depth Not available.
UV 0 out of 12
Pollen 7.40 out of 12
Air Quality Not available.
Flu Activity Local Activity
METAR KGMJ 060215Z AUTO 12004KT 10SM BKN100 23/13 A3003 RMK AO2

More Conditions Fewer Conditions

Nowcast | as of 7:33 PM CDT on May 5, 2015

at 7:30 PM scattered showers and isolated thunderstorms were advancing northward at 30 mph across eastern Oklahoma. Most of the rain and isolated thunderstorms were occurring to the west of Highway 75. Through 9:30 PM... showers and isolated thunderstorms are expected to continue becoming more numerous over eastern Oklahoma. Average hourly rainfall rates of several hundredths of an inch are anticipated... mainly west of Highway 75 and south of I 40. The strongest showers or thunderstorms however... may produce a tenth to over a quarter of an inch.

×

10-Day Weather Forecast

Almanac

Astronomy

May. 05, 2015 Rise Set
Actual Time
Civil Twilight
Nautical Twilight
Astronomical Twilight
Moon
Length of Visible Light
Length of Day
Tomorrow will be .
, % of the Moon is Illuminated

Today's Extremes

State Highs State Lows

Community

WunderPhotos

Upload Photos

1,819,041 photos uploaded!

WunderBlogs® & News

Nearby

Air Quality

  Air Quality AQ Index Pollutant
Not available.

Snow Depth

Station Depth Elevation

Earthquake Activity

City Distance Mag. Time & Date
Minimum magnitude displayed is 2.5.

Coastal Water Temperatures

Place Temperature

Stations

Nearby Weather Stations

Station Location Temp. Windchill Dew Point Humidity Wind Precip. Elev Updated Type